Terminal Aerodrome Forecast
Issued by NWS Paducah, KY

Home | Current Version | Previous Version | Text Only | Print | Product List | Glossary On
Versions: 1 2 3 4 5 6 7 8 9 10 11 12 13 14 15 16 17 18 19 20
000
FTUS43 KPAH 251721
TAFPAH
TAF
KPAH 251721Z 2518/2618 23006KT P6SM VCTS SCT030CB BKN250
      TEMPO 2518/2522 3SM TSRA BKN030CB
     FM260100 VRB03KT P6SM BKN150
     FM260900 00000KT 3SM BR BKN080
     FM261400 20003KT P6SM SCT020=

USA.gov is the U.S. government's official web portal to all federal, state and local government web resources and services.